createdAt,value
2023-02-16T00:02:36.765Z,206.80
2023-02-16T00:07:44.259Z,188.70
2023-02-16T00:13:14.993Z,178.30
2023-02-16T00:18:22.716Z,185.40
2023-02-16T00:24:13.138Z,221.50
2023-02-16T00:29:44.812Z,218.00
2023-02-16T00:34:49.514Z,188.60
2023-02-16T00:40:23.311Z,151.50
2023-02-16T00:45:36.712Z,223.80
2023-02-16T00:51:20.235Z,157.30
2023-02-16T00:56:28.831Z,235.00
2023-02-16T01:01:37.205Z,173.90
2023-02-16T01:13:48.439Z,223.40
2023-02-16T01:19:17.530Z,194.80
2023-02-16T01:24:40.323Z,193.60
2023-02-16T01:29:48.444Z,104.50
2023-02-16T01:35:07.708Z,185.80
2023-02-16T01:40:34.487Z,169.30
2023-02-16T01:45:43.634Z,180.40
2023-02-16T01:50:59.277Z,188.50
2023-02-16T01:56:50.410Z,191.50
2023-02-16T02:02:02.520Z,196.80
2023-02-16T02:07:52.403Z,144.50
2023-02-16T02:13:15.025Z,159.60
2023-02-16T02:18:19.093Z,167.90
2023-02-16T02:24:10.365Z,100.20
2023-02-16T02:30:35.957Z,195.90
2023-02-16T02:36:05.024Z,156.30
2023-02-16T02:41:52.629Z,136.40
2023-02-16T02:47:22.471Z,160.70
2023-02-16T02:52:58.364Z,230.20
2023-02-16T02:58:22.328Z,206.10
2023-02-16T03:03:52.362Z,167.40
2023-02-16T03:09:05.640Z,196.40
2023-02-16T03:14:41.474Z,166.30
2023-02-16T03:20:33.862Z,111.40
2023-02-16T03:25:58.211Z,228.20
2023-02-16T03:31:34.768Z,177.60
2023-02-16T03:36:45.077Z,200.70
2023-02-16T03:41:52.477Z,168.30
2023-02-16T03:46:56.299Z,127.80
2023-02-16T03:52:25.536Z,180.60
2023-02-16T03:57:31.547Z,198.70
2023-02-16T04:03:26.981Z,208.20
2023-02-16T04:08:46.910Z,229.00
2023-02-16T04:13:50.502Z,119.00
2023-02-16T04:19:26.593Z,244.90
2023-02-16T04:24:30.118Z,165.80
2023-02-16T04:29:34.665Z,117.30
2023-02-16T04:35:04.441Z,194.60
2023-02-16T04:40:55.031Z,143.30
2023-02-16T04:45:58.794Z,217.10
2023-02-16T04:52:24.185Z,143.30
2023-02-16T04:58:50.115Z,146.70
2023-02-16T05:04:16.837Z,134.10
2023-02-16T05:10:36.224Z,220.50
2023-02-16T05:16:30.545Z,202.60
2023-02-16T05:28:41.960Z,159.30
2023-02-16T05:33:45.874Z,205.80
2023-02-16T05:38:49.520Z,223.40
2023-02-16T05:44:19.218Z,177.80
2023-02-16T05:49:54.018Z,258.60
2023-02-16T05:56:22.341Z,226.90
2023-02-16T06:02:52.682Z,213.90
2023-02-16T06:07:56.327Z,186.80
2023-02-16T06:20:08.871Z,234.90
2023-02-16T06:40:02.651Z,167.80
2023-02-16T07:05:59.285Z,197.50
2023-02-16T07:20:00.218Z,219.20
2023-02-16T07:25:18.524Z,279.80
2023-02-16T07:30:23.046Z,185.00
2023-02-16T07:36:49.089Z,159.50
2023-02-16T07:49:46.873Z,219.60
2023-02-16T07:54:50.341Z,232.80
2023-02-16T08:04:47.868Z,174.60
2023-02-16T08:09:51.759Z,176.10
2023-02-16T08:16:17.419Z,225.90
2023-02-16T08:21:49.783Z,209.60
2023-02-16T08:35:40.564Z,156.90
2023-02-16T08:47:47.412Z,188.00
2023-02-16T08:53:40.957Z,200.60
2023-02-16T08:58:44.832Z,153.60
2023-02-16T09:03:48.741Z,231.00
2023-02-16T09:09:18.795Z,211.20
2023-02-16T09:14:23.392Z,236.40
2023-02-16T09:19:52.847Z,315.00
2023-02-16T09:24:59.320Z,212.00
2023-02-16T09:30:54.572Z,258.00
2023-02-16T09:35:58.527Z,186.90
2023-02-16T09:51:44.846Z,127.70
2023-02-16T09:57:09.166Z,139.80
2023-02-16T10:02:15.582Z,172.30
2023-02-16T10:08:34.473Z,192.70
2023-02-16T10:14:12.090Z,168.30
2023-02-16T10:19:26.937Z,132.90
2023-02-16T10:24:39.289Z,111.60
2023-02-16T10:29:43.268Z,151.50
2023-02-16T10:35:20.864Z,164.80
2023-02-16T10:40:46.542Z,303.00
2023-02-16T10:46:47.426Z,246.70
2023-02-16T10:53:28.062Z,229.30
2023-02-16T10:59:24.315Z,232.10
2023-02-16T11:04:43.055Z,235.20
2023-02-16T11:18:34.335Z,159.60
2023-02-16T11:24:55.605Z,158.80
2023-02-16T11:30:54.860Z,176.80
2023-02-16T11:35:58.744Z,195.30
2023-02-16T11:41:07.046Z,197.30
2023-02-16T11:46:17.992Z,188.00
2023-02-16T11:51:35.194Z,167.00
2023-02-16T11:56:39.679Z,197.20
2023-02-16T12:02:17.309Z,299.10
2023-02-16T12:07:51.564Z,217.90
2023-02-16T12:13:33.237Z,216.60
2023-02-16T12:19:56.225Z,315.80
2023-02-16T12:25:07.676Z,196.70
2023-02-16T12:38:13.738Z,128.00
2023-02-16T13:03:34.994Z,222.80
2023-02-16T13:24:16.088Z,228.10
2023-02-16T13:30:28.149Z,198.00
2023-02-16T13:36:03.339Z,244.10
2023-02-16T13:41:56.036Z,259.20
2023-02-16T13:47:05.909Z,214.30
2023-02-16T13:52:35.991Z,291.10
2023-02-16T13:58:12.997Z,207.70
2023-02-16T14:03:23.559Z,301.80
2023-02-16T14:08:30.206Z,335.00
2023-02-16T14:13:45.709Z,317.40
2023-02-16T14:19:17.935Z,256.10
2023-02-16T14:24:34.974Z,419.50
2023-02-16T14:30:03.723Z,340.80
2023-02-16T14:35:29.275Z,266.80
2023-02-16T14:41:05.037Z,329.70
2023-02-16T15:01:24.372Z,615.20
2023-02-16T15:06:53.018Z,447.70
2023-02-16T15:12:32.048Z,285.50
2023-02-16T15:18:59.541Z,303.10
2023-02-16T15:24:35.705Z,408.50
2023-02-16T15:30:09.755Z,352.70
2023-02-16T15:45:54.495Z,458.10
2023-02-16T15:52:14.252Z,770.50
2023-02-16T15:58:08.517Z,807.60
2023-02-16T16:03:17.883Z,485.70
2023-02-16T16:15:42.895Z,311.70
2023-02-16T16:20:46.481Z,825.90
2023-02-16T16:25:50.863Z,750.70
2023-02-16T16:32:11.246Z,644.40
2023-02-16T16:37:40.914Z,653.20
2023-02-16T16:48:37.001Z,661.20
2023-02-16T16:54:01.424Z,686.60
2023-02-16T16:59:11.183Z,684.80
2023-02-16T17:04:22.373Z,781.00
2023-02-16T17:17:21.049Z,782.10
2023-02-16T17:22:24.638Z,786.20
2023-02-16T17:36:13.190Z,788.10
2023-02-16T17:42:58.243Z,823.00
2023-02-16T17:48:54.193Z,796.10
2023-02-16T17:53:57.782Z,734.00
2023-02-16T17:59:34.279Z,691.40
2023-02-16T18:41:43.032Z,800.70
2023-02-16T19:05:34.883Z,684.80
2023-02-16T19:11:31.208Z,710.00
2023-02-16T19:30:55.554Z,724.90
2023-02-16T19:36:28.014Z,997.20
2023-02-16T19:41:36.118Z,868.40
2023-02-16T19:53:47.478Z,506.80
2023-02-16T19:58:58.799Z,461.00
2023-02-16T20:04:03.246Z,441.90
2023-02-16T20:09:55.686Z,347.60
2023-02-16T20:15:11.438Z,336.10
2023-02-16T20:20:16.359Z,263.90
2023-02-16T20:25:20.486Z,234.40
2023-02-16T20:30:32.553Z,356.90
2023-02-16T20:35:46.666Z,310.80
2023-02-16T20:45:56.231Z,218.60
2023-02-16T20:51:04.420Z,332.20
2023-02-16T20:56:23.891Z,244.80
2023-02-16T21:07:34.193Z,229.30
2023-02-16T21:12:38.218Z,253.00
2023-02-16T21:28:00.795Z,329.30
2023-02-16T21:33:05.003Z,295.10
2023-02-16T21:38:18.491Z,419.50
2023-02-16T21:43:48.174Z,331.30
2023-02-16T22:02:49.138Z,242.70
2023-02-16T22:08:45.941Z,168.60
2023-02-16T22:13:58.133Z,199.70
2023-02-16T22:19:07.679Z,244.90
2023-02-16T22:24:14.688Z,271.90
2023-02-16T22:29:19.351Z,256.10
2023-02-16T22:34:23.101Z,289.20
2023-02-16T22:39:26.925Z,285.20
2023-02-16T22:44:31.202Z,277.00
2023-02-16T22:49:41.498Z,254.90
2023-02-16T22:54:46.050Z,198.40
2023-02-16T22:59:52.702Z,225.70
2023-02-16T23:04:59.208Z,256.60
2023-02-16T23:10:12.603Z,254.70
2023-02-16T23:23:52.512Z,203.90
2023-02-16T23:51:38.771Z,266.60
2023-02-16T23:56:42.916Z,276.80
